Time;durP1;ratioP1;P1;durP2;ratioP2;P2;SDS_P1;SDS_P2;PMS_P1;PMS_P2;Temp;Humidity;BMP_temperature;BMP_pressure;BME280_temperature;BME280_humidity;BME280_pressure;Samples;Min_cycle;Max_cycle;Signal;HPM_P1;HPM_P2
2022/03/13 00:02:04;;;;;;;26.88;14.80;;;1.60;78.00;;;;;;6278130;22;20053;-64
2022/03/13 00:04:29;;;;;;;28.80;15.88;;;1.50;78.50;;;;;;6279757;22;20003;-64
2022/03/13 00:06:56;;;;;;;25.15;14.00;;;1.40;78.60;;;;;;6278944;22;20012;-65
2022/03/13 00:09:22;;;;;;;29.20;15.10;;;1.50;78.50;;;;;;6278722;22;20196;-65
2022/03/13 00:11:53;;;;;;;29.98;14.52;;;1.60;77.90;;;;;;6278109;22;20003;-65
2022/03/13 00:14:26;;;;;;;25.83;14.38;;;1.60;78.40;;;;;;6279673;22;20007;-65
2022/03/13 00:16:53;;;;;;;27.80;14.05;;;1.50;77.90;;;;;;6279089;22;20003;-65
2022/03/13 00:19:20;;;;;;;26.88;13.73;;;1.50;77.80;;;;;;6278701;22;20088;-65
2022/03/13 00:21:54;;;;;;;24.90;13.77;;;1.40;77.90;;;;;;6278169;22;20003;-63
2022/03/13 00:24:22;;;;;;;27.77;14.75;;;1.40;77.90;;;;;;6277480;22;20011;-65
2022/03/13 00:26:48;;;;;;;26.75;14.73;;;1.30;78.60;;;;;;6277393;22;20000;-64
2022/03/13 00:29:14;;;;;;;29.27;15.65;;;1.10;79.70;;;;;;6279199;22;19996;-63
2022/03/13 00:31:40;;;;;;;22.13;12.50;;;0.90;81.60;;;;;;6278700;22;20007;-64
2022/03/13 00:34:05;;;;;;;26.45;13.10;;;0.80;81.20;;;;;;6278515;22;20002;-64
2022/03/13 00:36:31;;;;;;;25.10;12.75;;;0.80;80.70;;;;;;6278290;22;20008;-63
2022/03/13 00:38:57;;;;;;;23.58;11.90;;;0.90;79.50;;;;;;6277050;22;20004;-64
2022/03/13 00:41:23;;;;;;;25.63;12.88;;;1.00;79.10;;;;;;6278531;22;20691;-64
2022/03/13 00:43:48;;;;;;;25.63;13.48;;;1.10;79.70;;;;;;6278651;22;20003;-63
2022/03/13 00:46:14;;;;;;;26.27;13.40;;;1.00;80.40;;;;;;6277701;22;20000;-62
2022/03/13 00:48:41;;;;;;;24.38;12.57;;;1.00;79.70;;;;;;6278624;22;20000;-64
2022/03/13 00:51:07;;;;;;;24.35;12.57;;;1.00;79.10;;;;;;6278677;22;19996;-64
2022/03/13 00:53:32;;;;;;;25.10;12.13;;;1.30;77.90;;;;;;6279480;22;20365;-63
2022/03/13 00:55:58;;;;;;;31.20;16.15;;;1.50;76.50;;;;;;6278696;22;20000;-65
2022/03/13 00:58:24;;;;;;;26.27;14.95;;;1.60;77.00;;;;;;6279827;22;20612;-65
2022/03/13 01:00:49;;;;;;;28.80;14.82;;;1.50;77.60;;;;;;6280206;22;20027;-65
2022/03/13 01:03:48;;;;;;;28.45;15.13;;;1.50;77.50;;;;;;6280106;22;20003;-64
2022/03/13 01:06:15;;;;;;;24.27;13.55;;;1.10;79.40;;;;;;6280056;22;20088;-65
2022/03/13 01:08:44;;;;;;;27.48;13.77;;;0.90;79.80;;;;;;6280553;22;20004;-64
2022/03/13 01:11:11;;;;;;;25.13;13.65;;;0.60;80.80;;;;;;6279150;22;20006;-65
2022/03/13 01:13:37;;;;;;;26.08;13.88;;;0.40;81.30;;;;;;6280737;22;19996;-64
2022/03/13 01:16:15;;;;;;;24.23;13.93;;;0.30;81.90;;;;;;6278928;22;20070;-64
2022/03/13 01:18:49;;;;;;;23.40;12.27;;;0.30;82.40;;;;;;6280277;22;20003;-65
2022/03/13 01:21:18;;;;;;;;;;;0.40;81.60;;;;;;6280845;22;20006;-65
2022/03/13 01:24:17;;;;;;;24.33;13.27;;;0.30;82.90;;;;;;6280196;22;19910;-65
2022/03/13 01:26:43;;;;;;;23.58;13.73;;;0.20;83.00;;;;;;6279770;22;20014;-64
2022/03/13 01:29:15;;;;;;;24.30;12.27;;;0.20;83.10;;;;;;6279674;22;20000;-64
2022/03/13 01:31:44;;;;;;;24.75;12.40;;;0.30;82.00;;;;;;6280035;22;20308;-64
2022/03/13 01:34:12;;;;;;;22.35;12.45;;;0.40;81.60;;;;;;6280098;22;20019;-65
2022/03/13 01:36:38;;;;;;;21.20;12.15;;;0.70;81.00;;;;;;6279981;22;20000;-65
2022/03/13 01:39:06;;;;;;;23.67;11.85;;;0.70;80.80;;;;;;6278479;22;20078;-65
2022/03/13 01:41:33;;;;;;;21.42;12.70;;;0.60;80.40;;;;;;6280434;22;20401;-65
2022/03/13 01:44:00;;;;;;;22.30;11.40;;;0.60;80.60;;;;;;6279793;22;20008;-65
2022/03/13 01:46:27;;;;;;;19.10;11.30;;;0.70;79.00;;;;;;6279922;22;20062;-66
2022/03/13 01:48:56;;;;;;;21.25;12.45;;;0.80;77.30;;;;;;6279633;22;20010;-65
2022/03/13 01:51:23;;;;;;;25.05;11.32;;;1.00;77.00;;;;;;6280034;22;20000;-64
2022/03/13 01:53:54;;;;;;;20.55;11.45;;;1.00;78.40;;;;;;6279796;22;20000;-65
2022/03/13 01:56:21;;;;;;;23.23;12.18;;;0.90;78.60;;;;;;6278943;22;20000;-66
2022/03/13 01:58:50;;;;;;;24.48;11.68;;;0.70;79.60;;;;;;6279376;22;20003;-65
2022/03/13 02:01:17;;;;;;;20.45;11.82;;;0.70;79.90;;;;;;6279559;22;20099;-65
2022/03/13 02:03:42;;;;;;;20.52;11.63;;;0.60;79.50;;;;;;6279445;22;20015;-65
2022/03/13 02:06:11;;;;;;;21.25;11.90;;;0.70;78.80;;;;;;6279132;22;20270;-65
2022/03/13 02:08:37;;;;;;;21.33;12.82;;;0.70;79.50;;;;;;6279790;22;19996;-64
2022/03/13 02:11:04;;;;;;;23.15;11.73;;;0.60;79.80;;;;;;6278452;22;20053;-64
2022/03/13 02:13:31;;;;;;;22.88;12.82;;;0.80;78.70;;;;;;6279673;22;20007;-64
2022/03/13 02:15:58;;;;;;;21.65;12.18;;;0.80;78.70;;;;;;6279625;22;20029;-64
2022/03/13 02:18:24;;;;;;;23.92;11.80;;;1.00;77.70;;;;;;6279649;22;20003;-64
2022/03/13 02:20:52;;;;;;;22.58;12.07;;;1.30;76.20;;;;;;6279483;22;20105;-66
2022/03/13 02:23:26;;;;;;;26.27;11.80;;;1.50;75.80;;;;;;6279471;22;20000;-66
2022/03/13 02:25:56;;;;;;;21.75;11.85;;;1.50;76.10;;;;;;6278095;22;20053;-63
2022/03/13 02:28:24;;;;;;;22.98;11.27;;;1.50;75.30;;;;;;6279706;22;20030;-65
2022/03/13 02:30:53;;;;;;;20.17;11.38;;;1.70;74.30;;;;;;6279774;22;20319;-65
2022/03/13 02:33:21;;;;;;;24.30;12.07;;;2.00;73.60;;;;;;6279337;22;19996;-65
2022/03/13 02:35:57;;;;;;;20.05;12.20;;;2.20;72.90;;;;;;6279087;22;20010;-64
2022/03/13 02:38:24;;;;;;;26.15;12.60;;;2.50;71.90;;;;;;6279643;22;20003;-65
2022/03/13 02:40:51;;;;;;;21.35;11.57;;;2.60;71.60;;;;;;6277446;22;20011;-65
2022/03/13 02:43:17;;;;;;;22.77;12.30;;;2.70;70.90;;;;;;6279447;22;20003;-65
2022/03/13 02:45:43;;;;;;;21.77;12.77;;;2.80;70.30;;;;;;6279144;22;20235;-65
2022/03/13 02:48:10;;;;;;;23.15;12.48;;;2.80;70.40;;;;;;6279206;22;20075;-65
2022/03/13 02:50:36;;;;;;;23.30;12.55;;;2.80;70.40;;;;;;6279461;22;20609;-65
2022/03/13 02:53:03;;;;;;;21.55;11.95;;;2.80;70.70;;;;;;6279467;22;20320;-65
2022/03/13 02:55:29;;;;;;;21.92;12.50;;;2.80;70.50;;;;;;6277679;22;20012;-65
2022/03/13 02:57:54;;;;;;;23.40;12.65;;;2.70;71.50;;;;;;6279579;22;20148;-65
2022/03/13 03:00:37;;;;;;;22.30;12.85;;;2.70;71.00;;;;;;6278865;22;20007;-65
2022/03/13 03:03:03;;;;;;;22.42;12.40;;;2.60;71.30;;;;;;6279094;22;19999;-65
2022/03/13 03:05:31;;;;;;;22.95;11.68;;;2.50;71.70;;;;;;6278785;22;20057;-65
2022/03/13 03:07:57;;;;;;;21.10;12.38;;;2.70;70.80;;;;;;6279112;22;20091;-65
2022/03/13 03:10:23;;;;;;;19.25;11.48;;;2.70;71.50;;;;;;6277829;22;20300;-64
2022/03/13 03:12:48;;;;;;;22.50;12.27;;;2.60;71.40;;;;;;6278812;22;20075;-64
2022/03/13 03:15:18;;;;;;;22.60;11.98;;;2.50;71.90;;;;;;6278986;22;20307;-65
2022/03/13 03:17:44;;;;;;;25.80;14.23;;;2.40;72.90;;;;;;6279098;22;20007;-65
2022/03/13 03:20:11;;;;;;;24.10;13.18;;;2.40;73.30;;;;;;6278835;22;20006;-65
2022/03/13 03:22:37;;;;;;;23.08;12.85;;;2.40;73.60;;;;;;6279100;22;20007;-63
2022/03/13 03:25:06;;;;;;;23.40;13.55;;;2.40;73.90;;;;;;6277141;22;20003;-65
2022/03/13 03:27:31;;;;;;;23.70;12.85;;;2.30;73.90;;;;;;6278823;22;20067;-64
2022/03/13 03:29:59;;;;;;;24.63;12.95;;;2.30;73.70;;;;;;6279268;22;20031;-64
2022/03/13 03:32:25;;;;;;;24.25;12.23;;;2.20;73.40;;;;;;6278703;22;20279;-65
2022/03/13 03:34:51;;;;;;;23.92;12.68;;;2.10;74.20;;;;;;6278634;22;20030;-64
2022/03/13 03:37:16;;;;;;;23.52;12.52;;;2.00;74.90;;;;;;6278740;22;20007;-64
2022/03/13 03:39:42;;;;;;;24.92;13.57;;;2.00;75.20;;;;;;6277615;22;20039;-65
2022/03/13 03:42:08;;;;;;;33.80;14.85;;;2.00;75.40;;;;;;6278724;22;20014;-65
2022/03/13 03:44:33;;;;;;;25.50;13.80;;;2.00;75.90;;;;;;6278420;22;20011;-64
2022/03/13 03:46:59;;;;;;;27.15;14.68;;;2.00;75.60;;;;;;6279480;22;20032;-64
2022/03/13 03:49:25;;;;;;;27.17;14.45;;;2.10;75.00;;;;;;6280032;22;20387;-64
2022/03/13 03:51:52;;;;;;;24.17;13.27;;;2.10;75.50;;;;;;6279850;22;20079;-65
2022/03/13 03:54:18;;;;;;;24.17;12.77;;;2.20;74.80;;;;;;6278497;22;20026;-64
2022/03/13 03:56:46;;;;;;;23.80;13.52;;;2.20;74.00;;;;;;6279841;22;20004;-65
2022/03/13 03:59:11;;;;;;;24.65;14.68;;;2.30;73.80;;;;;;6280306;22;20082;-64
2022/03/13 04:01:39;;;;;;;29.08;13.40;;;2.40;73.90;;;;;;6280309;22;20068;-64
2022/03/13 04:04:07;;;;;;;23.58;13.32;;;2.50;73.80;;;;;;6279244;22;20075;-64
2022/03/13 04:06:34;;;;;;;23.52;13.38;;;2.50;73.30;;;;;;6279513;22;20019;-64
2022/03/13 04:09:00;;;;;;;26.38;13.13;;;2.50;73.30;;;;;;6278176;22;20300;-65
2022/03/13 04:11:29;;;;;;;26.90;14.30;;;2.40;73.70;;;;;;6279897;22;20000;-65
2022/03/13 04:13:55;;;;;;;27.23;13.98;;;2.30;74.00;;;;;;6279435;22;20000;-64
2022/03/13 04:16:20;;;;;;;26.70;13.95;;;2.20;74.10;;;;;;6278211;22;20130;-64
2022/03/13 04:18:47;;;;;;;24.98;13.00;;;2.20;74.10;;;;;;6279349;22;20050;-64
2022/03/13 04:21:13;;;;;;;30.80;13.95;;;2.20;74.00;;;;;;6279507;22;20242;-64
2022/03/13 04:23:39;;;;;;;25.10;13.88;;;2.30;73.80;;;;;;6279111;22;20004;-65
2022/03/13 04:26:04;;;;;;;25.98;13.32;;;2.30;73.50;;;;;;6278052;22;20090;-66
2022/03/13 04:28:31;;;;;;;24.80;14.10;;;2.40;73.30;;;;;;6280882;22;20127;-65
2022/03/13 04:30:59;;;;;;;27.10;14.50;;;2.30;73.60;;;;;;6282105;22;19996;-65
2022/03/13 04:33:28;;;;;;;25.30;14.40;;;2.20;73.90;;;;;;6281685;22;20068;-65
2022/03/13 04:36:00;;;;;;;24.83;13.70;;;2.20;73.60;;;;;;6281924;22;20264;-65
2022/03/13 04:38:32;;;;;;;24.13;12.77;;;2.20;73.80;;;;;;6282066;22;20086;-65
2022/03/13 04:40:58;;;;;;;26.80;13.93;;;2.20;74.10;;;;;;6279880;22;20086;-65
2022/03/13 04:43:27;;;;;;;26.80;13.85;;;2.10;74.20;;;;;;6281664;22;20120;-65
2022/03/13 04:45:52;;;;;;;30.15;15.07;;;2.10;74.20;;;;;;6281698;22;20086;-66
2022/03/13 04:48:18;;;;;;;29.60;16.42;;;2.10;74.40;;;;;;6281566;22;20007;-64
2022/03/13 04:50:46;;;;;;;24.65;13.85;;;2.00;75.00;;;;;;6281817;22;19995;-65
2022/03/13 04:53:15;;;;;;;28.20;15.10;;;2.00;75.00;;;;;;6281218;22;20073;-65
2022/03/13 04:55:42;;;;;;;30.67;15.90;;;2.00;75.50;;;;;;6279908;22;20000;-65
2022/03/13 04:58:11;;;;;;;30.55;14.48;;;2.00;76.20;;;;;;6281453;22;20011;-65
2022/03/13 05:00:38;;;;;;;28.90;14.70;;;2.00;76.50;;;;;;6281567;22;20004;-65
2022/03/13 05:03:05;;;;;;;28.60;15.63;;;2.10;76.40;;;;;;6281705;22;20007;-65
2022/03/13 05:05:34;;;;;;;29.23;15.23;;;2.10;77.00;;;;;;6280792;22;20000;-64
2022/03/13 05:08:00;;;;;;;28.48;15.05;;;2.10;76.80;;;;;;6281192;22;20276;-64
2022/03/13 05:10:35;;;;;;;30.80;14.90;;;2.10;76.60;;;;;;6279725;22;20026;-64
2022/03/13 05:13:01;;;;;;;26.27;14.48;;;2.10;76.40;;;;;;6281390;22;20066;-64
2022/03/13 05:15:27;;;;;;;31.23;14.63;;;2.00;75.90;;;;;;6281827;22;20003;-66
2022/03/13 05:17:52;;;;;;;27.80;15.88;;;2.00;75.90;;;;;;6281123;22;20004;-65
2022/03/13 05:20:18;;;;;;;25.40;14.18;;;2.10;76.40;;;;;;6280091;22;20327;-67
2022/03/13 05:22:44;;;;;;;27.30;15.10;;;2.10;76.70;;;;;;6281191;22;20042;-65
2022/03/13 05:25:09;;;;;;;25.85;13.73;;;2.10;76.00;;;;;;6279495;22;20003;-65
2022/03/13 05:27:35;;;;;;;26.10;13.77;;;2.10;75.30;;;;;;6281299;22;20000;-66
2022/03/13 05:30:01;;;;;;;27.52;14.80;;;2.10;75.50;;;;;;6281087;22;20019;-65
2022/03/13 05:32:28;;;;;;;25.80;13.90;;;2.20;75.40;;;;;;6280883;22;20003;-66
2022/03/13 05:34:53;;;;;;;28.73;14.95;;;2.20;75.00;;;;;;6281465;22;20501;-65
2022/03/13 05:37:19;;;;;;;26.73;14.20;;;2.20;74.90;;;;;;6280953;22;20015;-65
2022/03/13 05:39:45;;;;;;;28.63;14.18;;;2.10;75.30;;;;;;6279675;22;20008;-65
2022/03/13 05:42:11;;;;;;;26.50;13.50;;;2.10;75.30;;;;;;6280983;22;20007;-66
2022/03/13 05:44:37;;;;;;;27.80;14.10;;;2.20;75.30;;;;;;6280596;22;20361;-65
2022/03/13 05:47:06;;;;;;;25.45;14.05;;;2.20;75.40;;;;;;6281134;22;20373;-65
2022/03/13 05:49:32;;;;;;;21.92;12.98;;;2.20;75.50;;;;;;6280857;22;20369;-65
2022/03/13 05:52:00;;;;;;;26.10;13.63;;;2.20;75.10;;;;;;6280819;22;20031;-65
2022/03/13 05:54:25;;;;;;;24.25;13.73;;;2.30;75.40;;;;;;6279870;22;20000;-65
2022/03/13 05:56:52;;;;;;;27.77;14.00;;;2.20;75.40;;;;;;6281025;22;20373;-64
2022/03/13 05:59:21;;;;;;;25.85;14.23;;;2.20;75.00;;;;;;6281436;22;20011;-65
2022/03/13 06:01:47;;;;;;;27.70;15.15;;;2.20;74.70;;;;;;6280542;22;19999;-65
2022/03/13 06:04:13;;;;;;;27.40;13.95;;;2.20;75.50;;;;;;6280974;22;20042;-65
2022/03/13 06:06:39;;;;;;;30.42;14.40;;;2.20;76.40;;;;;;6280647;22;20014;-65
2022/03/13 06:09:05;;;;;;;27.60;15.48;;;2.20;76.30;;;;;;6277759;22;20007;-65
2022/03/13 06:11:30;;;;;;;28.20;17.42;;;2.30;75.70;;;;;;6280034;22;20345;-65
2022/03/13 06:13:56;;;;;;;30.15;17.02;;;2.20;76.10;;;;;;6280145;22;20079;-65
2022/03/13 06:16:25;;;;;;;28.90;16.55;;;2.30;76.50;;;;;;6280494;22;20022;-66
2022/03/13 06:18:50;;;;;;;43.53;24.75;;;2.30;76.40;;;;;;6280572;22;20034;-64
2022/03/13 06:21:16;;;;;;;30.77;17.70;;;2.10;77.50;;;;;;6280134;22;20003;-64
2022/03/13 06:23:41;;;;;;;33.20;18.73;;;1.90;78.20;;;;;;6279977;22;20083;-65
2022/03/13 06:26:10;;;;;;;29.95;18.33;;;1.80;78.50;;;;;;6278263;22;20010;-64
2022/03/13 06:28:36;;;;;;;28.88;17.88;;;1.80;79.10;;;;;;6280659;22;20079;-65
2022/03/13 06:31:02;;;;;;;29.77;15.30;;;1.90;79.80;;;;;;6280321;22;20365;-65
2022/03/13 06:33:30;;;;;;;24.05;12.98;;;2.00;80.30;;;;;;6279371;22;20004;-64
2022/03/13 06:35:56;;;;;;;26.33;14.38;;;2.00;79.40;;;;;;6280090;22;20010;-66
2022/03/13 06:38:22;;;;;;;27.85;15.20;;;2.10;80.40;;;;;;6279099;22;20008;-65
2022/03/13 06:40:47;;;;;;;23.60;13.05;;;2.40;80.60;;;;;;6278643;22;20440;-65
2022/03/13 06:43:13;;;;;;;25.60;14.60;;;2.50;79.70;;;;;;6280085;22;20000;-65
2022/03/13 06:45:39;;;;;;;32.45;17.02;;;2.70;79.10;;;;;;6280094;22;20034;-66
2022/03/13 06:48:04;;;;;;;33.85;18.20;;;2.80;79.00;;;;;;6280254;22;19999;-65
2022/03/13 06:50:30;;;;;;;31.17;16.75;;;2.90;79.30;;;;;;6279860;22;20004;-66
2022/03/13 06:52:56;;;;;;;34.38;20.17;;;2.90;79.20;;;;;;6279962;22;20000;-66
2022/03/13 06:55:23;;;;;;;34.50;18.92;;;3.00;79.50;;;;;;6277051;22;20007;-64
2022/03/13 06:57:49;;;;;;;31.98;17.35;;;2.90;79.10;;;;;;6279972;22;20000;-65
2022/03/13 07:00:16;;;;;;;30.52;16.63;;;3.00;79.20;;;;;;6279895;22;20010;-65
2022/03/13 07:02:42;;;;;;;27.85;17.23;;;3.10;79.40;;;;;;6280145;22;20303;-66
2022/03/13 07:05:08;;;;;;;27.13;16.65;;;3.20;80.20;;;;;;6279555;22;20091;-65
2022/03/13 07:07:34;;;;;;;33.20;20.23;;;3.40;79.80;;;;;;6279500;22;20031;-64
2022/03/13 07:09:59;;;;;;;34.63;20.55;;;3.60;79.20;;;;;;6278421;22;20000;-65
2022/03/13 07:12:26;;;;;;;43.40;25.77;;;3.70;78.50;;;;;;6279198;22;20440;-65
2022/03/13 07:14:56;;;;;;;48.92;27.33;;;3.80;77.30;;;;;;6279685;22;20023;-65
2022/03/13 07:17:23;;;;;;;69.32;36.83;;;3.80;76.80;;;;;;6279972;22;20390;-65
2022/03/13 07:19:52;;;;;;;55.70;31.58;;;3.90;76.20;;;;;;6278887;22;19996;-66
2022/03/13 07:22:18;;;;;;;39.53;20.13;;;4.10;75.80;;;;;;6279010;22;20293;-65
2022/03/13 07:24:47;;;;;;;34.70;19.55;;;4.20;75.20;;;;;;6277982;22;20008;-65
2022/03/13 07:27:16;;;;;;;34.58;20.48;;;4.40;74.80;;;;;;6278995;22;20361;-66
2022/03/13 07:29:42;;;;;;;36.45;19.25;;;4.60;74.60;;;;;;6279464;22;20238;-66
2022/03/13 07:32:08;;;;;;;34.20;19.88;;;4.80;74.30;;;;;;6279490;22;20006;-65
2022/03/13 07:34:34;;;;;;;30.95;17.67;;;5.00;74.30;;;;;;6280109;22;20003;-66
2022/03/13 07:37:00;;;;;;;29.92;16.58;;;5.10;73.20;;;;;;6279473;22;20010;-66
2022/03/13 07:39:25;;;;;;;24.90;14.80;;;5.30;73.70;;;;;;6276893;22;20054;-66
2022/03/13 07:41:54;;;;;;;25.27;14.02;;;5.50;73.60;;;;;;6279423;22;20277;-66
2022/03/13 07:44:23;;;;;;;27.67;15.07;;;5.70;73.80;;;;;;6279762;22;20008;-66
2022/03/13 07:46:49;;;;;;;24.98;13.25;;;5.90;73.00;;;;;;6278096;22;20057;-65
2022/03/13 07:49:14;;;;;;;25.88;14.18;;;6.10;73.60;;;;;;6277386;22;20003;-65
2022/03/13 07:51:40;;;;;;;26.40;15.02;;;6.40;73.40;;;;;;6278073;22;20003;-65
2022/03/13 07:54:06;;;;;;;24.13;14.40;;;6.60;73.40;;;;;;6277773;22;20028;-68
2022/03/13 07:56:32;;;;;;;27.77;17.13;;;6.90;73.00;;;;;;6279339;22;20066;-66
2022/03/13 07:58:57;;;;;;;28.27;16.60;;;7.30;72.20;;;;;;6279412;22;19996;-65
2022/03/13 08:01:23;;;;;;;40.92;24.08;;;7.60;71.20;;;;;;6279361;22;20004;-64
2022/03/13 08:03:51;;;;;;;42.97;25.40;;;7.80;69.90;;;;;;6279468;22;20011;-64
2022/03/13 08:06:17;;;;;;;39.00;23.25;;;7.90;69.20;;;;;;6278914;22;20008;-64
2022/03/13 08:08:42;;;;;;;39.67;23.63;;;8.00;69.30;;;;;;6279922;22;19999;-65
2022/03/13 08:11:11;;;;;;;34.15;20.30;;;8.10;69.20;;;;;;6277620;22;20054;-65
2022/03/13 08:13:39;;;;;;;32.25;19.63;;;8.20;67.70;;;;;;6279140;22;20350;-66
2022/03/13 08:16:05;;;;;;;30.10;17.13;;;8.30;67.30;;;;;;6279205;22;20007;-65
2022/03/13 08:18:36;;;;;;;27.45;16.13;;;8.40;66.50;;;;;;6279606;22;19999;-64
2022/03/13 08:21:02;;;;;;;26.95;16.85;;;8.60;65.50;;;;;;6279457;22;20083;-65
2022/03/13 08:23:30;;;;;;;32.10;18.40;;;8.70;64.80;;;;;;6279138;22;20088;-65
2022/03/13 08:25:56;;;;;;;28.23;16.75;;;9.00;64.70;;;;;;6277599;22;19995;-64
2022/03/13 08:28:22;;;;;;;29.38;14.95;;;9.80;63.80;;;;;;6279355;22;20065;-65
2022/03/13 08:30:47;;;;;;;24.33;14.35;;;10.80;61.60;;;;;;6279013;22;20388;-65
2022/03/13 08:33:13;;;;;;;23.15;14.60;;;11.60;60.20;;;;;;6277322;22;20358;-64
2022/03/13 08:35:39;;;;;;;25.15;14.27;;;12.20;58.50;;;;;;6276717;22;20000;-65
2022/03/13 08:38:04;;;;;;;23.80;14.50;;;12.70;57.40;;;;;;6276961;22;20060;-65
2022/03/13 08:40:30;;;;;;;26.20;15.20;;;13.10;56.00;;;;;;6275356;22;20003;-65
2022/03/13 08:42:56;;;;;;;28.70;13.57;;;13.80;55.50;;;;;;6276771;22;20078;-65
2022/03/13 08:45:22;;;;;;;23.83;13.65;;;13.40;54.00;;;;;;6276772;22;20086;-65
2022/03/13 08:47:48;;;;;;;22.50;14.00;;;13.90;53.70;;;;;;6277189;22;20007;-65
2022/03/13 08:50:15;;;;;;;21.85;14.15;;;14.20;53.10;;;;;;6277164;22;20000;-67
2022/03/13 08:52:42;;;;;;;20.83;14.10;;;14.20;53.30;;;;;;6279161;22;19995;-65
2022/03/13 08:55:08;;;;;;;21.38;14.13;;;14.30;53.10;;;;;;6278257;22;20072;-66
2022/03/13 08:57:35;;;;;;;24.67;13.93;;;14.30;53.30;;;;;;6278600;22;20010;-65
2022/03/13 09:00:00;;;;;;;24.63;14.50;;;14.70;53.40;;;;;;6278454;22;20000;-65
2022/03/13 09:02:26;;;;;;;24.63;15.07;;;14.70;53.10;;;;;;6277858;22;20004;-65
2022/03/13 09:04:52;;;;;;;23.38;14.60;;;14.80;53.30;;;;;;6279416;22;20054;-65
2022/03/13 09:07:18;;;;;;;22.38;13.38;;;15.40;52.30;;;;;;6279332;22;20255;-66
2022/03/13 09:09:44;;;;;;;25.80;14.15;;;15.80;50.70;;;;;;6277237;22;19996;-66
2022/03/13 09:12:10;;;;;;;20.45;13.55;;;15.70;50.80;;;;;;6279000;22;20014;-65
2022/03/13 09:14:39;;;;;;;19.42;12.48;;;15.90;50.40;;;;;;6279787;22;19996;-65
2022/03/13 09:17:07;;;;;;;22.15;11.75;;;15.70;50.70;;;;;;6280804;22;20000;-65
2022/03/13 09:19:34;;;;;;;20.02;11.85;;;15.70;50.10;;;;;;6280570;22;20000;-65
2022/03/13 09:21:59;;;;;;;21.50;12.60;;;15.70;49.20;;;;;;6280841;22;20035;-65
2022/03/13 09:24:25;;;;;;;21.33;14.18;;;15.50;51.20;;;;;;6279342;22;20057;-64
2022/03/13 09:26:51;;;;;;;22.60;13.18;;;16.20;51.20;;;;;;6280736;22;19996;-66
2022/03/13 09:29:16;;;;;;;21.20;13.38;;;16.40;50.30;;;;;;6281432;22;20003;-66
2022/03/13 09:31:45;;;;;;;22.40;13.27;;;16.50;49.50;;;;;;6281105;22;20075;-65
2022/03/13 09:34:11;;;;;;;18.70;12.85;;;16.50;49.30;;;;;;6281567;22;20053;-65
2022/03/13 09:36:37;;;;;;;21.60;14.57;;;16.50;49.60;;;;;;6281344;22;20365;-65
2022/03/13 09:39:07;;;;;;;22.70;13.93;;;16.80;50.40;;;;;;6280387;22;20353;-65
2022/03/13 09:41:33;;;;;;;18.13;11.75;;;16.80;49.30;;;;;;6281117;22;20004;-64
2022/03/13 09:43:59;;;;;;;22.20;13.63;;;17.10;49.20;;;;;;6281444;22;20003;-65
2022/03/13 09:46:24;;;;;;;20.27;13.20;;;17.90;47.50;;;;;;6280472;22;20083;-65
2022/03/13 09:48:53;;;;;;;18.85;13.15;;;17.60;47.80;;;;;;6281146;22;20049;-65
2022/03/13 09:51:18;;;;;;;19.00;12.90;;;17.80;48.10;;;;;;6280941;22;20034;-64
2022/03/13 09:53:44;;;;;;;22.20;13.50;;;18.00;47.90;;;;;;6280634;22;20257;-65
2022/03/13 09:56:10;;;;;;;20.10;12.63;;;18.40;46.30;;;;;;6279161;22;20034;-65
2022/03/13 09:58:36;;;;;;;21.73;13.88;;;18.10;46.80;;;;;;6280479;22;20007;-64
2022/03/13 10:01:02;;;;;;;22.25;14.23;;;18.50;47.20;;;;;;6280254;22;20008;-65
2022/03/13 10:03:29;;;;;;;24.88;16.33;;;18.20;47.20;;;;;;6280723;22;20030;-64
2022/03/13 10:05:56;;;;;;;22.35;14.95;;;18.10;47.90;;;;;;6281020;22;20027;-64
2022/03/13 10:08:28;;;;;;;23.90;15.18;;;17.50;49.10;;;;;;6280489;22;20277;-64
2022/03/13 10:10:54;;;;;;;21.85;15.10;;;17.40;49.30;;;;;;6279143;22;20014;-64
2022/03/13 10:13:35;;;;;;;33.67;15.52;;;17.30;49.50;;;;;;6281148;22;20034;-65
2022/03/13 10:16:02;;;;;;;22.42;14.63;;;16.90;49.70;;;;;;6280763;22;20002;-64
2022/03/13 10:18:28;;;;;;;26.88;14.23;;;16.40;49.90;;;;;;6280530;22;20050;-65
2022/03/13 10:20:55;;;;;;;21.83;14.43;;;16.40;50.20;;;;;;6280989;22;19999;-64
2022/03/13 10:23:22;;;;;;;24.35;16.17;;;16.60;50.60;;;;;;6280514;22;20012;-64
2022/03/13 10:25:54;;;;;;;24.35;16.35;;;16.70;50.60;;;;;;6277225;22;20008;-63
2022/03/13 10:28:31;;;;;;;30.92;16.75;;;17.20;50.70;;;;;;6278638;22;20066;-64
2022/03/13 10:31:00;;;;;;;22.70;15.75;;;17.60;49.30;;;;;;6279676;22;20412;-64
2022/03/13 10:33:27;;;;;;;22.27;13.90;;;17.80;49.00;;;;;;6279435;22;19999;-64
2022/03/13 10:36:08;;;;;;;23.73;16.10;;;18.00;49.00;;;;;;6279540;22;20011;-64
2022/03/13 10:38:34;;;;;;;23.60;15.95;;;17.50;48.60;;;;;;6280502;22;20007;-64
2022/03/13 10:41:00;;;;;;;32.85;15.95;;;17.00;49.30;;;;;;6279061;22;20397;-64
2022/03/13 10:43:29;;;;;;;22.33;14.70;;;16.60;49.70;;;;;;6280311;22;20004;-64
2022/03/13 10:45:56;;;;;;;25.90;16.27;;;16.70;50.20;;;;;;6280366;22;20049;-64
2022/03/13 10:48:33;;;;;;;24.35;16.02;;;16.90;49.60;;;;;;6280651;22;20008;-64
2022/03/13 10:51:01;;;;;;;26.23;15.60;;;17.20;49.20;;;;;;6279710;22;20011;-64
2022/03/13 10:53:28;;;;;;;25.42;16.45;;;16.70;49.60;;;;;;6277133;22;20277;-63
2022/03/13 10:56:05;;;;;;;24.92;14.73;;;16.50;50.60;;;;;;6278273;22;20004;-65
2022/03/13 10:58:32;;;;;;;23.48;15.15;;;16.80;49.70;;;;;;6280716;22;20030;-63
2022/03/13 11:01:05;;;;;;;24.38;15.30;;;17.10;49.50;;;;;;6279814;22;20004;-63
2022/03/13 11:03:46;;;;;;;23.02;15.65;;;17.30;49.60;;;;;;6280391;22;20115;-63
2022/03/13 11:06:12;;;;;;;26.67;16.23;;;17.50;49.30;;;;;;6279924;22;20043;-63
2022/03/13 11:08:40;;;;;;;25.08;16.13;;;17.90;48.90;;;;;;6280119;22;20007;-63
2022/03/13 11:11:06;;;;;;;28.42;17.77;;;17.90;48.80;;;;;;6278771;22;20060;-64
2022/03/13 11:13:34;;;;;;;27.17;17.77;;;17.80;49.20;;;;;;6280452;22;19999;-62
2022/03/13 11:16:00;;;;;;;26.00;16.42;;;18.30;48.10;;;;;;6280221;22;20007;-62
2022/03/13 11:18:33;;;;;;;28.35;19.23;;;18.20;48.30;;;;;;6279941;22;20122;-64
2022/03/13 11:21:00;;;;;;;29.20;18.63;;;18.50;48.90;;;;;;6280050;22;19999;-65
2022/03/13 11:23:31;;;;;;;31.40;19.65;;;18.40;48.50;;;;;;6280115;22;20357;-65
2022/03/13 11:25:57;;;;;;;29.60;18.45;;;18.80;47.70;;;;;;6278920;22;20007;-64
2022/03/13 11:28:28;;;;;;;28.60;18.88;;;19.10;48.00;;;;;;6280407;22;19999;-64
2022/03/13 11:30:54;;;;;;;29.77;18.65;;;19.30;46.70;;;;;;6279870;22;20007;-66
2022/03/13 11:33:44;;;;;;;32.90;19.27;;;19.20;46.40;;;;;;6279493;22;20003;-65
2022/03/13 11:36:28;;;;;;;32.97;18.65;;;19.20;46.80;;;;;;6279259;22;20004;-65
2022/03/13 11:39:03;;;;;;;32.55;19.83;;;18.80;47.00;;;;;;6279010;22;20039;-65
2022/03/13 11:41:34;;;;;;;29.45;19.45;;;18.50;46.70;;;;;;6278975;22;20030;-65
2022/03/13 11:44:22;;;;;;;33.38;20.05;;;18.00;47.60;;;;;;6279942;22;20015;-65
2022/03/13 11:47:00;;;;;;;29.73;18.75;;;17.90;49.60;;;;;;6280587;22;20000;-65
2022/03/13 11:49:26;;;;;;;33.38;20.27;;;18.30;48.70;;;;;;6279267;22;19999;-64
2022/03/13 11:52:12;;;;;;;28.33;18.73;;;18.70;48.10;;;;;;6278697;22;20007;-64
2022/03/13 11:54:48;;;;;;;31.00;19.67;;;19.00;47.60;;;;;;6271887;22;19996;-64
2022/03/13 11:57:22;;;;;;;28.38;18.50;;;19.00;46.80;;;;;;6279560;22;20000;-64
2022/03/13 12:00:12;;;;;;;35.80;19.73;;;18.60;46.60;;;;;;6278327;22;20061;-64
2022/03/13 12:02:41;;;;;;;28.58;19.27;;;18.40;48.70;;;;;;6279952;22;20069;-64
2022/03/13 12:05:30;;;;;;;28.15;17.75;;;18.80;48.70;;;;;;6279855;22;20073;-64
2022/03/13 12:08:06;;;;;;;29.13;18.52;;;19.40;46.70;;;;;;6279591;22;20012;-64
2022/03/13 12:10:43;;;;;;;26.80;17.88;;;19.60;46.20;;;;;;6278528;22;20034;-64
2022/03/13 12:13:11;;;;;;;28.60;17.67;;;19.40;47.50;;;;;;6279736;22;20007;-64
2022/03/13 12:15:39;;;;;;;29.48;18.67;;;19.60;46.70;;;;;;6279818;22;20003;-65
2022/03/13 12:18:24;;;;;;;28.00;18.77;;;20.00;47.10;;;;;;6280235;22;20015;-65
2022/03/13 12:20:52;;;;;;;27.42;18.55;;;20.30;45.80;;;;;;6279616;22;20003;-63
2022/03/13 12:23:28;;;;;;;28.85;18.48;;;20.00;46.10;;;;;;6279396;22;20007;-64
2022/03/13 12:26:14;;;;;;;25.65;17.27;;;20.30;45.60;;;;;;6278197;22;20075;-65
2022/03/13 12:28:39;;;;;;;30.38;18.80;;;20.20;46.30;;;;;;6279403;22;20000;-63
2022/03/13 12:31:05;;;;;;;27.77;17.25;;;20.10;46.70;;;;;;6279633;22;20392;-65
2022/03/13 12:33:32;;;;;;;29.50;19.15;;;20.20;46.40;;;;;;6279563;22;20003;-64
2022/03/13 12:35:59;;;;;;;25.95;18.02;;;20.40;46.00;;;;;;6279681;22;20042;-65
2022/03/13 12:38:30;;;;;;;27.15;18.40;;;20.40;45.10;;;;;;6279399;22;20014;-65